• Join FlightAware (Why Join?)
  • Login
  • US Flag 
05:24AM EST


 

Airport Tracker/Info


-or-


 

Live Flight TrackerFlight Track Log ✈ N61US ✈ 14-Oct-2013 ✈ KDSM - 3CK

Flight Track Log - Related Links

Times and Time Zones

All times are in EDT time to prevent confusion due to time zone crossing. See the N61US flight status page for this flight to view local times or setup timezone preferences in your user account.

Time Position Orientation Groundspeed Altitude Reporting Facility
EDT Latitude Longitude Course Direction KTS MPH feet Rate Location/Type
04:49PM 41.5278 -93.6281 132° Southeast 96 110 1,700  Level Minneapolis Center
04:50PM 41.5239 -93.5964 99° East 107 123 2,200 540 Climbing Minneapolis Center
04:50PM 41.5292 -93.5836 61° Northeast 114 131 2,300 480 Climbing Minneapolis Center
04:51PM 41.5286 -93.5544 91° East 114 131 2,700 480 Climbing Minneapolis Center
04:51PM 41.5350 -93.5419 56° Northeast 115 132 2,800 540 Climbing Minneapolis Center
04:52PM 41.5358 -93.5092 88° East 116 133 3,300 480 Climbing Minneapolis Center
04:52PM 41.5406 -93.5003 55° Northeast 117 135 3,300 480 Level Minneapolis Center
04:53PM 41.5483 -93.4583 76° East 117 135 3,800 480 Climbing Minneapolis Center
04:54PM 41.5622 -93.4164 66° East 125 144 4,300 480 Climbing Minneapolis Center
04:54PM 41.5575 -93.4267 238° Southwest 121 139 4,300 420 Level Minneapolis Center
04:55PM 41.5756 -93.3811 62° Northeast 127 146 4,800 420 Climbing Minneapolis Center
04:56PM 41.5869 -93.3367 71° East 127 146 5,200 420 Climbing Minneapolis Center
04:56PM 41.5919 -93.3239 62° Northeast 125 144 5,300 540 Climbing Minneapolis Center
04:57PM 41.5994 -93.2908 73° East 123 142 5,800 480 Climbing Minneapolis Center
04:57PM 41.6039 -93.2819 56° Northeast 127 146 5,800 360 Level Minneapolis Center
04:58PM 41.6061 -93.2489 85° East 117 135 6,200 360 Climbing Minneapolis Center
04:58PM 41.6117 -93.2400 50° Northeast 113 130 6,200 480 Level Minneapolis Center
04:59PM 41.6150 -93.1983 84° East 113 130 6,700 480 Climbing Minneapolis Center
04:59PM 41.6100 -93.2075 234° Southwest 114 131 6,700 480 Level Minneapolis Center
05:00PM 41.6183 -93.1564 78° East 113 130 7,200 540 Climbing Minneapolis Center
05:00PM 41.6147 -93.1631 234° Southwest 113 130 7,300 480 Climbing Minneapolis Center
05:01PM 41.6239 -93.1147 76° East 110 127 7,700 360 Climbing Minneapolis Center
05:01PM 41.6183 -93.1225 226° Southwest 111 128 7,700 480 Level Minneapolis Center
05:02PM 41.6294 -93.0728 73° East 114 131 8,200 540 Climbing Minneapolis Center
05:02PM 41.6242 -93.0781 217° Southwest 114 131 8,300 480 Climbing Minneapolis Center
05:03PM 41.6369 -93.0253 72° East 126 145 8,700 360 Climbing Minneapolis Center
05:03PM 41.6314 -93.0325 224° Southwest 123 142 8,700 420 Level Minneapolis Center
05:04PM 41.6392 -92.9875 77° East 125 144 9,200 480 Climbing Minneapolis Center
05:05PM 41.6450 -92.9394 81° East 122 140 9,700 480 Climbing Minneapolis Center
05:06PM 41.6503 -92.8942 81° East 124 143 10,200 480 Climbing Minneapolis Center
05:07PM 41.6558 -92.8492 81° East 125 144 10,700 300 Climbing Minneapolis Center
05:08PM 41.6633 -92.8008 78° East 129 148 10,900 60 Climbing Minneapolis Center
05:09PM 41.6697 -92.7472 81° East 140 161 10,900  Level Minneapolis Center
05:10PM 41.6803 -92.6833 78° East 156 180 10,900  Level Minneapolis Center
05:11PM 41.6875 -92.6222 81° East 159 183 11,000  Climbing Chicago Center
05:12PM 41.6961 -92.5669 78° East 157 181 11,000  Level Chicago Center
05:13PM 41.7083 -92.5017 76° East 153 176 11,000  Level Chicago Center
05:14PM 41.7167 -92.4456 79° East 154 177 11,000  Level Chicago Center
05:16PM 41.7272 -92.3917 75° East 153 176 11,000  Level Chicago Center
05:17PM 41.7361 -92.3364 78° East 153 176 11,000  Level Chicago Center
05:18PM 41.7458 -92.2831 76° East 151 174 11,000  Level Chicago Center
05:19PM 41.7564 -92.2175 78° East 152 175 11,000  Level Chicago Center
05:20PM 41.7664 -92.1625 76° East 153 176 11,000  Level Chicago Center
05:21PM 41.7761 -92.1069 77° East 153 176 11,000  Level Chicago Center
05:22PM 41.7844 -92.0514 79° East 154 177 11,000  Level Chicago Center
05:23PM 41.7936 -91.9939 78° East 158 182 11,000  Level Chicago Center
05:24PM 41.8056 -91.9283 76° East 155 178 11,000  Level Chicago Center
05:25PM 41.8144 -91.8733 78° East 155 178 11,000  Level Chicago Center
05:26PM 41.8244 -91.8206 76° East 150 173 11,000  Level Chicago Center
05:27PM 41.8328 -91.7642 79° East 153 176 11,000  Level Chicago Center
05:28PM 41.8442 -91.6969 77° East 155 178 11,000  Level Chicago Center
05:29PM 41.8531 -91.6414 78° East 154 177 11,000  Level Chicago Center
05:30PM 41.8622 -91.5858 77° East 154 177 11,000  Level Chicago Center
05:31PM 41.8717 -91.5333 76° East 150 173 11,000  Level Chicago Center
05:32PM 41.8803 -91.4797 78° East 148 170 11,000  Level Chicago Center
05:33PM 41.8908 -91.4161 77° East 147 169 11,000  Level Chicago Center
05:34PM 41.8983 -91.3617 79° East 149 171 11,000  Level Chicago Center
05:35PM 41.9081 -91.3089 76° East 146 168 11,000  Level Chicago Center
05:36PM 41.9161 -91.2531 79° East 153 176 11,000  Level Chicago Center
05:37PM 41.9267 -91.1914 77° East 146 168 11,000  Level Chicago Center
05:38PM 41.9347 -91.1372 79° East 148 170 11,000  Level Chicago Center
05:39PM 41.9433 -91.0842 78° East 147 169 11,000  Level Chicago Center
05:40PM 41.9514 -91.0311 78° East 146 168 11,000  Level Chicago Center
05:41PM 41.9614 -90.9775 76° East 149 171 11,000  Level Chicago Center
05:42PM 41.9714 -90.9131 78° East 149 171 11,000  Level Chicago Center
05:43PM 41.9800 -90.8608 77° East 148 170 11,000  Level Chicago Center
05:44PM 41.9867 -90.8078 80° East 146 168 11,000  Level Chicago Center
05:46PM 41.9956 -90.7544 77° East 146 168 11,000  Level Chicago Center
05:47PM 42.0036 -90.6994 79° East 151 174 11,000  Level Chicago Center
05:48PM 42.0139 -90.6347 78° East 150 173 11,000  Level Chicago Center
05:49PM 42.0225 -90.5811 78° East 148 170 11,000  Level Chicago Center
05:50PM 42.0308 -90.5267 78° East 150 173 11,000  Level Chicago Center
05:51PM 42.0378 -90.4733 80° East 148 170 11,000  Level Chicago Center
05:52PM 42.0486 -90.4075 77° East 149 171 11,000  Level Chicago Center
05:53PM 42.0578 -90.3525 77° East 154 177 11,000  Level Chicago Center
05:54PM 42.0647 -90.2986 80° East 150 173 11,000  Level Chicago Center
05:55PM 42.0728 -90.2447 79° East 148 170 11,100  Climbing Chicago Center
05:56PM 42.0806 -90.1908 79° East 148 170 11,000 -60 Descending Chicago Center
05:57PM 42.0914 -90.1253 77° East 150 173 11,000  Level Chicago Center
05:58PM 42.0997 -90.0719 78° East 147 169 11,000  Level Chicago Center
05:59PM 42.1083 -90.0164 78° East 152 175 11,000 -180 Level Chicago Center
06:00PM 42.1164 -89.9586 79° East 158 182 10,700 -420 Descending Chicago Center
06:01PM 42.1256 -89.8947 79° East 165 190 10,200 -540 Descending Chicago Center
06:02PM 42.1356 -89.8339 77° East 166 191 9,700 -540 Descending Chicago Center
06:03PM 42.1456 -89.7597 80° East 167 192 9,100 -540 Descending Chicago Center
06:04PM 42.1550 -89.7008 78° East 164 189 8,600 -480 Descending Chicago Center
06:05PM 42.1625 -89.6419 80° East 160 184 8,100 -300 Descending Chicago Center
06:06PM 42.1708 -89.5847 79° East 157 181 8,000 -60 Descending Chicago Center
06:07PM 42.1775 -89.5308 81° East 149 171 8,000  Level Chicago Center
06:08PM 42.1878 -89.4667 78° East 146 168 8,000  Level Chicago Center
06:09PM 42.1947 -89.4139 80° East 145 167 8,000  Level Chicago Center
06:10PM 42.2028 -89.3614 78° East 144 166 8,000  Level Chicago Center
06:11PM 42.2094 -89.3086 80° East 144 166 8,000  Level Chicago Center
06:12PM 42.2167 -89.2569 79° East 141 162 8,000  Level Chicago Center
06:13PM 42.2242 -89.2033 79° East 143 165 8,000 -240 Level Chicago Center
06:15PM 42.2381 -89.1381 74° East 150 173 7,600 -480 Descending Chicago Center
06:16PM 42.2511 -89.0800 73° East 159 183 7,100 -540 Descending Chicago Center
06:17PM 42.2639 -89.0261 72° East 154 177 6,600 -480 Descending Chicago Center
06:18PM 42.2731 -88.9742 77° East 146 168 6,200 -480 Descending Chicago Center
06:19PM 42.2839 -88.9233 74° East 142 163 5,700 -540 Descending Chicago Center
06:20PM 42.2967 -88.8683 73° East 148 170 5,200 -360 Descending Chicago Center
06:21PM 42.2883 -88.8136 102° East 137 158 5,000 -120 Descending Chicago Center
06:22PM 42.2789 -88.7664 105° East 130 150 5,000 -60 Level Chicago Center
06:23PM 42.2733 -88.7175 99° East 131 151 4,900 -300 Descending Chicago Center
06:24PM 42.2644 -88.6681 104° East 133 153 4,400 -540 Descending Chicago Center
06:25PM 42.2550 -88.6094 102° East 135 155 3,800 -600 Descending Chicago Center
06:27PM 42.2409 -88.5254 71° East  Level Estimated
06:34PM 42.2062 -88.3290 124° Southeast  Level FlightAware Approximate
06:35PM 42.2000 -88.3167 124° Southeast  Level FlightAware Approximate
06:36PM 42.2068 -88.3230 124° Southeast  Level Estimated
06:37PM 42.2068 -88.3230 124° Southeast  Level Estimated
06:38PM 42.2068 -88.3230 124° Southeast  Level Estimated
06:39PM 42.2068 -88.3230 124° Southeast  Level Estimated
06:40PM 42.2068 -88.3230 124° Southeast  Level Estimated
06:41PM 42.2068 -88.3230 124° Southeast  Level Estimated
06:42PM 42.2068 -88.3230 124° Southeast  Level Estimated